Time;durP1;ratioP1;P1;durP2;ratioP2;P2;SDS_P1;SDS_P2;PMS_P1;PMS_P2;Temp;Humidity;BMP_temperature;BMP_pressure;BME280_temperature;BME280_humidity;BME280_pressure;Samples;Min_cycle;Max_cycle;Signal;HPM_P1;HPM_P2
2021/10/06 02:19:58;;;;;;;2.00;1.00;;;;;;;12.20;82.12;98628.09;4973148;22;133367;-63
2021/10/06 02:22:28;;;;;;;1.80;1.00;;;;;;;11.70;84.91;98629.47;4999402;22;102806;-65
2021/10/06 02:24:57;;;;;;;2.30;1.27;;;;;;;11.47;85.67;98625.06;5005618;28;102779;-65
2021/10/06 02:27:25;;;;;;;2.88;1.30;;;;;;;11.43;85.47;98627.09;4991680;28;103287;-65
2021/10/06 02:29:54;;;;;;;1.80;1.00;;;;;;;11.67;85.18;98623.53;5007223;28;103244;-65
2021/10/06 02:32:22;;;;;;;1.52;0.90;;;;;;;11.52;86.45;98630.84;4991277;28;102813;-66
2021/10/06 02:34:52;;;;;;;1.75;1.00;;;;;;;11.69;84.37;98627.75;5016326;28;104083;-65
2021/10/06 02:37:21;;;;;;;2.38;1.30;;;;;;;11.28;87.00;98627.44;5009177;28;103215;-65
2021/10/06 02:39:49;;;;;;;1.40;0.73;;;;;;;11.65;86.03;98631.56;5001370;28;103301;-65
2021/10/06 02:42:18;;;;;;;1.03;0.87;;;;;;;11.86;84.93;98632.59;5008782;27;103113;-64
2021/10/06 02:44:46;;;;;;;2.10;0.80;;;;;;;11.98;84.05;98628.13;4991434;28;102816;-64
2021/10/06 03:49:51;;;;;;;3.93;1.10;;;;;;;11.91;84.29;98691.28;4954563;22;104473;-63
2021/10/06 03:52:24;;;;;;;1.33;0.73;;;;;;;12.08;84.35;98693.47;4982514;22;104563;-67
2021/10/06 04:26:28;;;;;;;2.58;1.02;;;;;;;12.10;85.07;98710.06;4995507;28;102628;-65
2021/10/06 04:28:57;;;;;;;2.60;1.20;;;;;;;12.03;85.07;98716.81;4979897;28;103212;-66
2021/10/06 04:31:26;;;;;;;1.75;0.95;;;;;;;12.01;84.87;98710.78;4994070;28;103114;-66
2021/10/06 04:33:55;;;;;;;1.88;0.80;;;;;;;12.25;84.14;98721.28;4994366;28;103135;-66
2021/10/06 04:36:23;;;;;;;1.63;0.90;;;;;;;12.38;83.28;98721.16;4978366;28;102852;-66
2021/10/06 04:38:52;;;;;;;1.48;0.80;;;;;;;12.42;83.55;98725.25;4977258;28;102995;-66
2021/10/06 04:41:20;;;;;;;0.90;0.70;;;;;;;12.56;82.74;98725.84;4986626;28;103253;-66
2021/10/06 04:43:50;;;;;;;3.40;1.10;;;;;;;12.41;83.85;98737.63;4993769;28;102619;-66
2021/10/06 04:46:19;;;;;;;2.30;1.10;;;;;;;12.28;83.95;98741.38;4980392;28;103913;-65
2021/10/06 04:48:48;;;;;;;1.77;0.90;;;;;;;12.57;83.28;98737.28;4990723;28;103280;-66
2021/10/06 04:51:16;;;;;;;1.50;0.80;;;;;;;12.71;82.43;98737.03;4992969;28;103238;-65
2021/10/06 04:53:45;;;;;;;1.17;0.80;;;;;;;12.74;82.10;98736.78;4994336;28;102814;-65
2021/10/06 04:56:14;;;;;;;1.67;0.90;;;;;;;12.74;81.97;98739.44;4994640;28;102588;-66
2021/10/06 04:58:45;;;;;;;1.10;0.70;;;;;;;12.81;81.78;98743.25;4993764;28;103986;-72
2021/10/06 05:01:15;;;;;;;1.60;1.10;;;;;;;12.62;82.38;98743.91;4994644;28;103159;-71
2021/10/06 05:03:43;;;;;;;2.30;0.90;;;;;;;12.63;82.53;98750.88;4992557;28;102971;-72
2021/10/06 05:06:14;;;;;;;2.70;1.20;;;;;;;12.45;83.20;98755.00;4995175;28;102661;-65
2021/10/06 05:08:45;;;;;;;1.73;0.90;;;;;;;12.48;82.82;98759.22;4975796;28;103497;-72
2021/10/06 05:11:14;;;;;;;2.42;1.25;;;;;;;12.19;83.87;98751.75;4997464;28;103252;-71
2021/10/06 05:13:43;;;;;;;2.65;1.40;;;;;;;12.25;84.55;98755.72;4999296;28;102728;-72
2021/10/06 05:16:11;;;;;;;2.50;1.13;;;;;;;12.50;82.62;98757.28;4996292;28;102822;-72
2021/10/06 05:18:41;;;;;;;1.55;0.98;;;;;;;12.56;82.53;98756.78;4997064;28;103385;-65
2021/10/06 05:21:10;;;;;;;1.77;1.00;;;;;;;12.69;82.09;98757.50;4996897;28;103209;-65
2021/10/06 05:23:39;;;;;;;1.90;0.75;;;;;;;12.67;82.19;98764.72;4999525;28;102564;-71
2021/10/06 05:26:08;;;;;;;2.90;1.08;;;;;;;12.53;82.10;98767.63;4999287;28;102917;-71
2021/10/06 05:28:37;;;;;;;1.30;0.80;;;;;;;12.70;81.39;98775.09;4998918;28;103499;-71
2021/10/06 05:31:05;;;;;;;3.00;1.05;;;;;;;12.71;81.30;98776.78;5000021;28;103207;-72
2021/10/06 05:33:34;;;;;;;1.60;0.80;;;;;;;12.70;81.13;98777.75;4996894;28;102634;-66
2021/10/06 05:36:05;;;;;;;2.95;0.95;;;;;;;12.25;82.34;98789.31;4994927;28;102629;-66
2021/10/06 05:38:35;;;;;;;1.60;0.88;;;;;;;12.58;82.04;98786.66;4996837;28;103308;-65
2021/10/06 05:41:04;;;;;;;1.83;0.80;;;;;;;12.84;80.94;98782.78;4992754;28;103239;-65
2021/10/06 05:43:32;;;;;;;2.63;0.90;;;;;;;12.94;80.21;98790.84;4991405;28;102662;-72
2021/10/06 05:46:01;;;;;;;2.13;0.90;;;;;;;12.85;80.43;98789.78;4994133;28;103546;-74
2021/10/06 05:48:29;;;;;;;3.65;1.27;;;;;;;12.68;80.74;98796.44;4993539;28;103284;-66
2021/10/06 05:50:58;;;;;;;2.27;1.20;;;;;;;12.53;81.33;98797.63;4996572;28;103239;-66
2021/10/06 05:53:28;;;;;;;1.58;0.93;;;;;;;12.57;81.18;98796.44;4996945;28;102732;-73
2021/10/06 05:55:57;;;;;;;2.90;1.10;;;;;;;12.54;81.50;98801.13;4997714;28;102599;-73
2021/10/06 05:58:27;;;;;;;3.33;1.60;;;;;;;12.48;81.44;98802.47;4995048;28;103016;-66
2021/10/06 06:00:57;;;;;;;2.20;0.95;;;;;;;12.55;80.75;98810.75;4996562;28;103331;-65
2021/10/06 06:03:26;;;;;;;3.17;1.30;;;;;;;12.14;82.50;98814.81;4995286;28;103128;-65
2021/10/06 06:05:55;;;;;;;2.30;1.05;;;;;;;12.04;83.02;98813.00;4991666;28;103834;-64
2021/10/06 06:08:23;;;;;;;3.05;1.25;;;;;;;12.09;82.56;98816.13;4994265;28;103291;-72
2021/10/06 06:10:53;;;;;;;3.03;1.40;;;;;;;12.08;82.67;98815.28;4997823;28;103275;-72
2021/10/06 06:13:22;;;;;;;1.70;0.90;;;;;;;12.34;82.08;98820.38;4998017;28;102781;-73
2021/10/06 06:15:52;;;;;;;2.10;1.10;;;;;;;12.65;80.55;98809.94;4995550;28;103168;-72
2021/10/06 06:18:22;;;;;;;1.88;0.90;;;;;;;12.46;80.98;98819.44;4995994;28;103299;-73
2021/10/06 06:20:51;;;;;;;2.20;1.10;;;;;;;12.20;81.90;98819.66;4994594;28;103253;-72
2021/10/06 06:23:21;;;;;;;2.83;1.17;;;;;;;11.99;82.85;98815.97;4995005;28;102875;-66
2021/10/06 06:25:50;;;;;;;1.77;1.00;;;;;;;12.11;81.90;98815.06;4991874;28;103066;-65
2021/10/06 06:28:21;;;;;;;3.40;1.05;;;;;;;12.29;80.74;98822.56;4993446;28;103707;-65
2021/10/06 06:30:50;;;;;;;2.67;1.00;;;;;;;12.19;80.94;98825.06;4994959;28;103474;-65
2021/10/06 06:33:18;;;;;;;2.50;1.10;;;;;;;12.09;81.07;98822.28;4996249;28;102628;-65
2021/10/06 06:35:47;;;;;;;3.35;1.40;;;;;;;12.24;80.81;98824.72;4994335;28;102736;-65
2021/10/06 06:38:16;;;;;;;2.85;1.10;;;;;;;12.19;80.73;98833.00;4993084;28;103189;-65
2021/10/06 06:40:45;;;;;;;3.97;1.20;;;;;;;12.31;80.16;98828.56;4997855;28;103266;-74
2021/10/06 06:43:13;;;;;;;1.35;0.80;;;;;;;12.53;79.39;98832.06;4993461;28;102867;-72
2021/10/06 06:45:44;;;;;;;2.88;1.15;;;;;;;12.58;78.76;98831.72;4997388;28;103578;-72
2021/10/06 06:48:15;;;;;;;2.27;1.00;;;;;;;12.60;78.92;98837.75;4993450;28;103335;-73
2021/10/06 06:50:50;;;;;;;3.20;1.10;;;;;;;12.49;79.42;98843.06;4995987;28;103234;-72
2021/10/06 06:53:20;;;;;;;1.33;0.80;;;;;;;12.72;78.68;98852.69;4971953;28;103079;-73
2021/10/06 06:55:48;;;;;;;1.30;0.70;;;;;;;12.94;77.82;98855.31;4978591;28;103990;-73
2021/10/06 06:58:17;;;;;;;2.78;1.08;;;;;;;12.51;78.58;98857.88;4977061;28;103072;-73
2021/10/06 07:00:49;;;;;;;3.55;1.13;;;;;;;12.57;79.57;98860.03;4974724;28;103334;-73
2021/10/06 07:03:18;;;;;;;3.63;0.98;;;;;;;12.74;79.24;98858.72;4975138;28;102625;-72
2021/10/06 07:05:47;;;;;;;1.70;1.00;;;;;;;12.84;78.50;98859.69;4971284;28;102653;-72
2021/10/06 07:08:17;;;;;;;2.33;0.93;;;;;;;12.77;78.11;98867.25;4974883;28;103306;-65
2021/10/06 07:10:46;;;;;;;2.60;1.10;;;;;;;12.61;78.87;98858.81;4973354;28;103293;-66
2021/10/06 07:13:30;;;;;;;3.20;1.20;;;;;;;12.70;78.61;98870.53;4979423;28;102718;-72
2021/10/06 07:16:01;;;;;;;3.15;0.90;;;;;;;13.09;77.55;98872.72;4973050;28;103214;-73
2021/10/06 07:18:30;;;;;;;2.42;0.80;;;;;;;13.18;77.29;98871.97;4976418;28;102930;-72
2021/10/06 07:20:59;;;;;;;2.05;1.00;;;;;;;12.91;77.65;98884.75;4975043;28;103706;-65
2021/10/06 07:23:28;;;;;;;1.80;0.90;;;;;;;13.03;77.59;98877.63;4976253;28;102936;-65
2021/10/06 07:26:00;;;;;;;2.57;1.00;;;;;;;13.21;76.99;98887.66;4974101;28;103017;-73
2021/10/06 07:28:29;;;;;;;2.90;1.02;;;;;;;13.39;76.57;98889.78;4975878;28;103332;-65
2021/10/06 07:31:01;;;;;;;2.17;1.10;;;;;;;13.28;76.75;98896.78;4975975;28;103163;-65
2021/10/06 07:33:29;;;;;;;2.45;1.30;;;;;;;13.12;77.34;98887.53;4975334;28;102860;-65
2021/10/06 07:35:58;;;;;;;3.28;1.52;;;;;;;13.50;75.51;98898.56;4976003;28;103824;-65
2021/10/06 07:38:28;;;;;;;1.80;0.90;;;;;;;13.50;75.99;98900.38;4974268;28;104292;-65
2021/10/06 07:40:56;;;;;;;1.73;1.00;;;;;;;13.40;76.28;98907.38;4972124;28;103005;-65
2021/10/06 07:43:25;;;;;;;4.53;1.20;;;;;;;13.23;76.51;98906.94;4970364;28;103059;-64
2021/10/06 07:45:58;;;;;;;2.97;0.93;;;;;;;13.43;75.68;98907.16;4974838;28;102640;-65
2021/10/06 07:48:34;;;;;;;4.20;1.38;;;;;;;13.48;74.66;98912.91;4975522;28;103269;-72
2021/10/06 07:51:04;;;;;;;4.10;1.10;;;;;;;13.31;75.42;98904.50;4976939;28;103225;-65
2021/10/06 07:53:33;;;;;;;2.13;1.00;;;;;;;13.71;74.74;98911.91;4997009;28;102699;-71
2021/10/06 07:56:02;;;;;;;2.38;1.13;;;;;;;13.92;74.13;98910.16;4974249;28;102767;-72
2021/10/06 07:58:31;;;;;;;2.50;1.02;;;;;;;13.83;74.70;98908.25;4994374;28;103266;-72
2021/10/06 08:01:00;;;;;;;4.15;1.15;;;;;;;13.60;74.33;98922.56;4993376;28;103675;-65
2021/10/06 08:03:29;;;;;;;3.73;1.33;;;;;;;13.68;73.77;98923.63;4984055;28;102846;-65
2021/10/06 08:06:00;;;;;;;2.50;1.30;;;;;;;13.62;73.77;98936.53;4977997;28;103046;-71
2021/10/06 08:08:28;;;;;;;3.33;1.10;;;;;;;13.77;73.21;98930.84;4993406;28;103077;-65
2021/10/06 08:10:59;;;;;;;1.63;1.10;;;;;;;13.70;74.02;98931.44;4995922;28;103126;-71
2021/10/06 08:13:29;;;;;;;2.67;1.20;;;;;;;13.72;74.10;98927.72;4994060;28;102949;-71
2021/10/06 08:15:59;;;;;;;2.38;1.20;;;;;;;13.82;73.79;98930.47;4994972;28;102676;-73
2021/10/06 08:18:27;;;;;;;4.60;1.23;;;;;;;13.92;72.87;98942.84;4994484;28;103924;-72
2021/10/06 08:20:57;;;;;;;4.05;1.30;;;;;;;13.87;72.67;98934.41;4997182;28;103205;-64
2021/10/06 08:23:30;;;;;;;2.33;1.10;;;;;;;14.09;72.24;98938.81;4993043;28;102721;-72
2021/10/06 08:26:00;;;;;;;2.28;1.10;;;;;;;14.23;72.15;98940.34;4992301;28;102718;-65
2021/10/06 08:28:28;;;;;;;3.17;1.30;;;;;;;13.88;72.45;98940.59;4993067;28;103259;-66
2021/10/06 08:30:57;;;;;;;3.92;1.27;;;;;;;13.60;73.05;98946.44;4993036;28;103161;-66
2021/10/06 08:33:25;;;;;;;2.78;1.40;;;;;;;13.58;73.08;98949.25;4986239;28;103708;-66
2021/10/06 08:35:54;;;;;;;2.90;1.35;;;;;;;13.71;72.65;98949.94;4991193;28;102674;-72
2021/10/06 08:38:23;;;;;;;4.25;1.15;;;;;;;13.67;73.41;98958.28;4995174;28;103292;-66
2021/10/06 08:40:53;;;;;;;4.85;1.50;;;;;;;13.34;75.60;98967.94;4995212;28;104081;-66
2021/10/06 08:43:24;;;;;;;4.00;1.50;;;;;;;13.66;75.62;98961.88;4995527;28;102728;-74
2021/10/06 08:45:56;;;;;;;1.92;1.00;;;;;;;13.98;75.31;98968.06;4993687;28;104038;-65
2021/10/06 08:48:27;;;;;;;3.13;1.17;;;;;;;13.78;76.69;98976.84;4992632;28;103637;-74
2021/10/06 08:50:56;;;;;;;2.60;1.10;;;;;;;13.85;77.71;98983.31;4993409;28;104694;-74
2021/10/06 08:53:45;;;;;;;3.08;1.23;;;;;;;13.98;76.80;98973.38;4996223;28;103106;-74
2021/10/06 08:56:15;;;;;;;2.80;1.30;;;;;;;13.94;78.25;98966.66;4992550;28;102829;-74
2021/10/06 08:58:44;;;;;;;4.32;1.23;;;;;;;13.67;77.76;98971.56;4992633;28;103934;-64
2021/10/06 09:01:22;;;;;;;2.80;1.20;;;;;;;14.04;79.09;98978.19;4997078;28;103201;-64
2021/10/06 09:03:56;;;;;;;2.60;1.17;;;;;;;15.39;75.44;98975.47;4992476;28;102830;-73
2021/10/06 09:06:36;;;;;;;5.40;1.58;;;;;;;14.63;75.38;98967.09;4992488;28;102719;-65
2021/10/06 09:09:14;;;;;;;3.83;1.50;;;;;;;14.80;73.73;98975.31;4990730;28;104158;-64
2021/10/06 09:11:47;;;;;;;3.08;1.30;;;;;;;14.72;72.20;98977.78;4990091;28;103153;-65
2021/10/06 09:14:16;;;;;;;3.60;1.20;;;;;;;14.60;73.24;98978.81;4989947;28;102854;-64
2021/10/06 09:16:46;;;;;;;3.97;1.27;;;;;;;14.60;73.84;98980.63;4993117;28;103276;-65
2021/10/06 09:19:36;;;;;;;2.90;1.35;;;;;;;14.82;72.44;98975.22;4998430;28;104005;-65
2021/10/06 09:22:11;;;;;;;3.87;1.03;;;;;;;15.20;72.83;98975.41;4996879;28;103042;-65
2021/10/06 09:24:58;;;;;;;3.17;1.17;;;;;;;16.05;71.32;98967.84;5000118;28;103129;-73
2021/10/06 09:27:31;;;;;;;3.90;1.40;;;;;;;15.44;69.42;98964.41;5000181;28;102581;-66
2021/10/06 09:30:02;;;;;;;3.53;1.30;;;;;;;15.18;70.93;98982.69;4999918;28;103303;-66
2021/10/06 09:32:35;;;;;;;2.50;1.00;;;;;;;15.48;69.64;98980.03;4996057;28;103322;-66
2021/10/06 09:35:10;;;;;;;3.42;1.20;;;;;;;15.22;70.61;98984.09;4998021;28;102717;-64
2021/10/06 09:37:43;;;;;;;3.80;1.30;;;;;;;15.28;69.61;98986.22;4999674;28;102852;-64
2021/10/06 09:40:17;;;;;;;2.72;1.13;;;;;;;15.26;69.38;98988.19;4998932;28;103260;-64
2021/10/06 09:42:49;;;;;;;3.92;1.30;;;;;;;15.21;70.49;98998.41;4998996;28;103291;-64
2021/10/06 09:45:23;;;;;;;3.50;1.20;;;;;;;15.18;71.79;99003.97;4998495;28;102841;-64
2021/10/06 09:48:03;;;;;;;2.30;1.00;;;;;;;15.58;70.15;98998.69;4999688;28;102558;-65
2021/10/06 09:50:33;;;;;;;2.63;1.05;;;;;;;15.87;68.02;99001.44;4999556;28;103242;-73
2021/10/06 09:53:08;;;;;;;3.60;1.35;;;;;;;15.62;65.42;98992.13;5000176;28;103107;-72
2021/10/06 09:55:38;;;;;;;2.95;1.00;;;;;;;15.91;67.10;98992.22;4998144;28;102504;-72
2021/10/06 09:58:09;;;;;;;4.32;1.13;;;;;;;15.37;66.85;99004.06;4997769;28;102708;-72
2021/10/06 10:00:40;;;;;;;4.40;1.42;;;;;;;15.00;70.03;99010.88;4998277;28;103412;-72
2021/10/06 10:03:11;;;;;;;2.40;1.25;;;;;;;14.94;69.61;99006.91;4995618;28;103176;-72
2021/10/06 10:05:40;;;;;;;3.28;1.33;;;;;;;15.26;68.10;99009.47;4992483;28;102758;-65
2021/10/06 10:08:11;;;;;;;3.90;1.35;;;;;;;15.38;70.41;99027.03;4998340;28;103910;-73
2021/10/06 10:10:40;;;;;;;3.60;1.42;;;;;;;15.32;72.90;99032.91;4992962;28;103277;-71
2021/10/06 10:13:11;;;;;;;3.35;1.30;;;;;;;14.98;74.45;99039.44;4998671;28;103230;-73
2021/10/06 10:15:39;;;;;;;4.03;1.33;;;;;;;14.23;74.43;99036.81;5000112;28;102813;-74
2021/10/06 10:18:27;;;;;;;1.55;0.88;;;;;;;15.25;73.12;99026.41;4986339;28;102881;-74
2021/10/06 10:20:56;;;;;;;2.40;1.20;;;;;;;15.81;73.26;99023.31;4997876;28;103573;-73
2021/10/06 10:23:25;;;;;;;2.15;1.02;;;;;;;16.45;73.16;99029.06;4997128;28;103249;-65
2021/10/06 10:25:54;;;;;;;4.18;1.27;;;;;;;16.65;71.70;99026.25;4978330;28;102795;-64
2021/10/06 10:28:28;;;;;;;2.30;0.77;;;;;;;17.14;69.50;99027.03;4995033;28;103889;-74
2021/10/06 10:31:03;;;;;;;3.95;2.58;;;;;;;17.11;70.26;99032.66;4995986;28;103337;-74
2021/10/06 10:33:42;;;;;;;;;;;;;;;16.85;70.45;99035.09;4986749;28;103193;-72
2021/10/06 10:36:37;;;;;;;;;;;;;;;16.91;69.57;99033.69;4992777;28;103308;-65
2021/10/06 10:39:06;;;;;;;;;;;;;;;16.73;69.41;99034.38;4959097;28;104403;-64
2021/10/06 10:41:44;;;;;;;;;;;;;;;17.12;67.44;99037.03;4990172;28;103060;-71
2021/10/06 10:44:24;;;;;;;1.85;0.77;;;;;;;17.13;68.42;99030.69;4996389;28;103120;-64
2021/10/06 10:46:55;;;;;;;2.47;0.80;;;;;;;17.39;68.15;99037.94;4991314;28;103001;-63
2021/10/06 10:49:25;;;;;;;1.77;0.82;;;;;;;17.38;67.09;99040.72;4991007;28;103966;-71
2021/10/06 10:51:57;;;;;;;2.72;0.95;;;;;;;16.49;64.42;99035.78;4990499;28;103248;-72
2021/10/06 10:54:33;;;;;;;2.95;0.90;;;;;;;16.90;66.11;99045.34;4983234;28;103457;-72
2021/10/06 10:57:07;;;;;;;2.13;0.90;;;;;;;17.20;65.19;99043.34;4989535;28;103085;-71
2021/10/06 10:59:47;;;;;;;3.13;1.00;;;;;;;17.09;65.95;99039.97;4985847;28;102776;-72
2021/10/06 11:02:20;;;;;;;2.70;0.70;;;;;;;16.90;64.26;99035.50;4989775;28;103903;-71
2021/10/06 11:04:57;;;;;;;1.60;0.75;;;;;;;16.75;65.80;99043.13;4989106;28;103178;-72
2021/10/06 11:07:27;;;;;;;5.82;0.95;;;;;;;16.84;65.29;99035.25;4993986;28;102982;-65
2021/10/06 11:09:58;;;;;;;2.35;1.08;;;;;;;16.67;63.44;99032.28;4990243;28;104021;-63
2021/10/06 11:12:53;;;;;;;4.00;1.08;;;;;;;16.14;64.41;99038.97;4995074;28;103180;-64
2021/10/06 11:15:36;;;;;;;2.72;1.10;;;;;;;15.99;66.44;99048.31;4992615;28;103273;-72
2021/10/06 11:18:18;;;;;;;2.58;1.00;;;;;;;16.42;65.52;99030.16;4992023;28;102718;-71
2021/10/06 11:21:01;;;;;;;2.97;0.73;;;;;;;16.23;66.38;99030.13;4992883;28;102749;-71
2021/10/06 11:24:01;;;;;;;3.85;0.90;;;;;;;16.14;66.07;99036.31;4991477;28;103887;-64
2021/10/06 11:26:33;;;;;;;3.27;0.90;;;;;;;15.69;65.86;99035.06;4993500;28;103248;-72
2021/10/06 11:29:08;;;;;;;1.77;1.02;;;;;;;15.72;67.21;99037.47;4993867;28;102625;-72
2021/10/06 11:31:41;;;;;;;2.33;0.70;;;;;;;17.01;63.56;99029.19;4995280;28;103794;-64
2021/10/06 11:34:19;;;;;;;2.22;0.65;;;;;;;17.61;61.69;99023.41;4987550;28;104372;-64
2021/10/06 11:36:50;;;;;;;2.43;1.00;;;;;;;17.57;61.05;99019.31;4985590;28;103210;-64
2021/10/06 11:39:20;;;;;;;1.95;0.73;;;;;;;18.14;59.48;99028.88;4976255;28;102748;-64
2021/10/06 11:41:52;;;;;;;1.13;0.57;;;;;;;17.51;60.98;99022.56;4995101;28;104040;-63
2021/10/06 11:44:32;;;;;;;1.85;0.63;;;;;;;17.94;59.33;99020.13;4987319;28;103347;-73
2021/10/06 11:47:05;;;;;;;2.30;0.77;;;;;;;17.98;60.38;99017.16;4985505;28;103256;-72
2021/10/06 11:49:35;;;;;;;1.10;0.70;;;;;;;18.31;58.74;99017.38;4993840;28;102673;-72
2021/10/06 11:52:06;;;;;;;2.75;0.80;;;;;;;18.59;56.05;99012.81;4993066;28;102962;-72
2021/10/06 11:54:35;;;;;;;1.83;0.77;;;;;;;18.66;56.05;99013.88;4982127;28;104498;-72
2021/10/06 11:57:07;;;;;;;3.53;0.80;;;;;;;18.65;55.43;98998.81;4998314;28;103030;-72
2021/10/06 11:59:37;;;;;;;;;;;;;;;18.74;54.85;98997.91;4992275;28;102677;-72
2021/10/06 12:02:12;;;;;;;;;;;;;;;18.72;54.45;99002.56;5005561;28;102616;-72
2021/10/06 12:04:41;;;;;;;;;;;;;;;19.04;55.08;99002.81;5001738;28;103330;-73
2021/10/06 12:07:10;;;;;;;;;;;;;;;18.98;52.10;98998.06;5001605;28;103075;-72
2021/10/06 12:09:41;;;;;;;;;;;;;;;18.29;53.25;98999.78;5000555;28;102671;-72
2021/10/06 12:12:10;;;;;;;;;;;;;;;18.86;53.94;98993.97;4996899;28;103016;-72
2021/10/06 12:14:44;;;;;;;;;;;;;;;18.31;53.49;98995.13;4987901;28;103491;-74
2021/10/06 12:17:18;;;;;;;;;;;;;;;18.25;53.34;98999.25;4985805;28;103281;-72
2021/10/06 12:19:59;;;;;;;;;;;;;;;17.48;55.01;99014.84;4967578;28;102792;-72
2021/10/06 12:22:32;;;;;;;;;;;;;;;16.98;57.44;99016.13;4993710;28;102590;-72
2021/10/06 12:25:01;;;;;;;;;;;;;;;16.37;59.27;99027.06;4974782;28;103395;-72
2021/10/06 12:27:31;;;;;;;;;;;;;;;15.99;61.26;99037.66;4999042;28;103169;-73
2021/10/06 12:30:15;;;;;;;;;;;;;;;15.10;66.68;99033.06;4998234;28;103080;-72
2021/10/06 12:32:46;;;;;;;;;;;;;;;14.85;65.41;99044.94;4998705;28;102777;-65
2021/10/06 12:35:16;;;;;;;;;;;;;;;14.89;65.25;99048.19;4997928;28;103901;-65
2021/10/06 12:37:49;;;;;;;;;;;;;;;15.43;63.18;99030.16;4996802;28;103244;-66
2021/10/06 12:40:31;;;;;;;;;;;;;;;16.17;61.52;99022.69;5001389;28;102983;-71
2021/10/06 12:43:05;;;;;;;;;;;;;;;16.69;59.90;99026.81;4998801;28;102651;-71
2021/10/06 12:45:33;;;;;;;;;;;;;;;17.02;57.40;99022.84;4998769;28;103871;-72
2021/10/06 12:48:04;;;;;;;;;;;;;;;16.80;55.81;99013.34;5001104;28;102937;-71
2021/10/06 12:50:32;;;;;;;;;;;;;;;16.20;58.92;99014.41;4998953;28;102601;-65
2021/10/06 12:53:10;;;;;;;;;;;;;;;16.98;58.32;99016.13;4992800;28;104257;-65
2021/10/06 12:55:39;;;;;;;;;;;;;;;17.11;57.46;99006.81;4989618;28;103915;-64
2021/10/06 12:58:09;;;;;;;;;;;;;;;17.03;57.57;99006.69;4999416;28;103212;-71
2021/10/06 13:00:37;;;;;;;;;;;;;;;17.03;58.69;99001.38;4999567;28;102750;-72
2021/10/06 13:03:07;;;;;;;;;;;;;;;17.40;59.04;99004.88;5000166;28;102591;-72
2021/10/06 13:05:35;;;;;;;;;;;;;;;17.07;59.81;99015.25;4981710;28;103864;-72
2021/10/06 13:08:15;;;;;;;;;;;;;;;16.98;60.24;99021.47;4990501;28;103138;-64
2021/10/06 13:10:45;;;;;;;;;;;;;;;16.75;62.42;99023.59;4995673;28;102693;-72
2021/10/06 13:13:13;;;;;;;;;;;;;;;16.41;63.80;99012.47;4995351;28;103949;-71
2021/10/06 13:15:42;;;;;;;;;;;;;;;16.35;64.49;99021.03;4996987;28;103196;-64
2021/10/06 13:18:12;;;;;;;;;;;;;;;16.03;64.78;99031.06;4998794;28;103122;-64
2021/10/06 13:20:41;;;;;;;;;;;;;;;16.26;65.12;99021.84;4980291;28;102677;-63
2021/10/06 13:23:09;;;;;;;;;;;;;;;16.43;66.77;99020.31;4998606;28;102618;-64
2021/10/06 13:25:38;;;;;;;;;;;;;;;16.20;68.71;99020.59;4984958;28;103490;-72
2021/10/06 13:28:06;;;;;;;;;;;;;;;16.77;68.56;99029.63;4998486;28;103141;-64
2021/10/06 13:30:35;;;;;;;;;;;;;;;16.43;66.43;99026.50;4998741;28;102687;-65
2021/10/06 13:33:03;;;;;;;;;;;;;;;16.60;64.75;99027.66;4998502;28;102623;-72
2021/10/06 13:35:33;;;;;;;;;;;;;;;15.98;63.87;99027.97;4997961;28;103953;-72
2021/10/06 13:38:01;;;;;;;;;;;;;;;16.01;64.73;99035.69;4998180;28;103191;-72
2021/10/06 13:40:31;;;;;;;;;;;;;;;16.13;64.38;99035.47;4998930;28;102598;-71
2021/10/06 13:42:59;;;;;;;;;;;;;;;16.28;63.52;99027.88;4998465;28;102931;-72
2021/10/06 13:45:28;;;;;;;;;;;;;;;16.33;63.04;99033.66;5001545;28;103382;-72
2021/10/06 13:47:56;;;;;;;;;;;;;;;16.32;64.24;99023.13;4999731;28;103174;-71
2021/10/06 13:50:25;;;;;;;;;;;;;;;16.49;64.02;99033.94;5002087;28;103205;-71
2021/10/06 13:52:56;;;;;;;;;;;;;;;16.45;63.60;99029.88;5002205;28;103922;-71
2021/10/06 13:55:26;;;;;;;;;;;;;;;16.63;61.91;99027.38;4980398;28;104374;-65
2021/10/06 13:57:56;;;;;;;;;;;;;;;16.59;62.06;99029.47;5007773;28;103244;-64
2021/10/06 14:00:26;;;;;;;;;;;;;;;16.63;61.90;99033.56;5002148;28;102579;-65
2021/10/06 14:02:55;;;;;;;;;;;;;;;16.12;62.65;99038.25;5012216;28;102641;-64
2021/10/06 14:05:24;;;;;;;;;;;;;;;16.10;62.95;99045.56;4999669;28;103447;-65
2021/10/06 14:07:53;;;;;;;;;;;;;;;15.89;61.26;99047.44;5000549;28;103347;-64
2021/10/06 14:10:24;;;;;;;;;;;;;;;16.05;61.91;99047.78;4998722;28;102954;-64
2021/10/06 14:12:53;;;;;;;;;;;;;;;16.02;60.47;99053.38;4999441;28;102736;-64
2021/10/06 14:15:22;;;;;;;;;;;;;;;15.87;58.75;99054.72;4999950;28;103061;-64
2021/10/06 14:17:54;;;;;;;;;;;;;;;15.94;59.66;99061.22;5000921;28;103201;-71
2021/10/06 17:43:39;;;;;;;;;;;;;;;12.44;74.51;99262.06;4979911;28;103172;-65
2021/10/06 17:46:07;;;;;;;;;;;;;;;12.51;74.26;99257.19;4974679;28;103129;-65
2021/10/06 17:48:35;;;;;;;;;;;;;;;12.57;74.45;99267.34;4986644;28;103137;-67
2021/10/06 17:51:03;;;;;;;;;;;;;;;12.59;73.70;99266.28;4993342;28;104346;-68
2021/10/06 17:53:33;;;;;;;;;;;;;;;12.57;74.50;99268.22;4991689;28;103223;-66
2021/10/06 17:56:01;;;;;;;;;;;;;;;12.62;74.59;99268.72;4991919;28;103579;-68
2021/10/06 17:58:29;;;;;;;;;;;;;;;12.62;74.51;99262.56;4980166;28;103006;-68
2021/10/06 18:01:01;;;;;;;;;;;;;;;12.61;74.69;99268.81;4991606;28;102684;-67
2021/10/06 18:03:28;;;;;;;;;;;;;;;12.59;75.23;99270.72;4991791;28;103347;-68
2021/10/06 18:05:56;;;;;;;;;;;;;;;12.55;74.88;99275.41;4992549;28;103208;-67
2021/10/06 18:08:24;;;;;;;;;;;;;;;12.43;75.39;99270.13;4994109;28;102676;-68
2021/10/06 18:10:52;;;;;;;;;;;;;;;12.52;75.82;99280.09;4994197;28;104049;-68
2021/10/06 18:13:20;;;;;;;;;;;;;;;12.56;75.59;99282.41;4981842;28;104720;-66
2021/10/06 18:15:47;;;;;;;;;;;;;;;12.60;74.97;99277.75;4989811;28;103110;-66
2021/10/06 18:18:17;;;;;;;;;;;;;;;12.58;74.93;99285.78;4991257;28;102719;-66
2021/10/06 18:20:45;;;;;;;;;;;;;;;12.60;74.68;99288.34;4990459;28;102824;-66
2021/10/06 18:23:13;;;;;;;;;;;;;;;12.62;74.99;99286.41;4990366;28;103248;-66
2021/10/06 18:25:46;;;;;;;;;;;;;;;12.61;75.23;99300.63;4990970;28;103203;-68
2021/10/06 18:28:15;;;;;;;;;;;;;;;12.52;74.79;99288.88;4989569;28;103039;-68
2021/10/06 18:30:43;;;;;;;;;;;;;;;12.57;75.75;99293.88;4993109;28;103037;-68
2021/10/06 18:33:11;;;;;;;;;;;;;;;12.57;75.57;99299.16;4990389;28;103283;-68
2021/10/06 18:35:41;;;;;;;;;;;;;;;12.59;75.30;99299.88;4991762;28;103113;-67
2021/10/06 18:38:08;;;;;;;;;;;;;;;12.59;74.84;99310.50;4979692;28;103228;-68
2021/10/06 18:40:36;;;;;;;;;;;;;;;12.58;75.01;99311.44;4974040;28;104568;-67
2021/10/06 18:43:04;;;;;;;;;;;;;;;12.57;75.33;99309.75;4991578;28;103319;-68
2021/10/06 18:45:52;;;;;;;;;;;;;;;12.52;75.45;99317.19;4962340;28;103163;-67
2021/10/06 18:48:20;;;;;;;;;;;;;;;12.39;76.09;99322.50;4967605;28;102744;-68
2021/10/06 18:50:49;;;;;;;;;;;;;;;12.44;76.15;99328.31;4960254;28;102681;-68
2021/10/06 18:53:17;;;;;;;;;;;;;;;12.47;76.03;99314.84;4959065;28;104080;-66
2021/10/06 18:55:45;;;;;;;;;;;;;;;12.46;76.24;99328.22;4963987;28;104379;-67
2021/10/06 18:58:14;;;;;;;;;;;;;;;12.33;76.13;99316.75;4953595;28;102834;-67
2021/10/06 19:00:41;;;;;;;;;;;;;;;12.28;76.30;99325.03;4968005;28;102728;-66
2021/10/06 19:03:09;;;;;;;;;;;;;;;12.31;76.44;99322.19;4963489;28;104130;-67
2021/10/06 19:05:37;;;;;;;;;;;;;;;12.31;76.23;99322.19;4941082;28;103175;-66
2021/10/06 19:08:07;;;;;;;;;;;;;;;12.24;76.18;99320.91;4962610;28;103177;-66
2021/10/06 19:10:34;;;;;;;;;;;;;;;12.29;76.35;99325.91;4964994;28;102775;-66
2021/10/06 19:13:02;;;;;;;;;;;;;;;12.21;75.99;99335.22;4970284;28;103356;-66
2021/10/06 19:15:30;;;;;;;;;;;;;;;12.31;76.47;99329.28;4964394;28;103141;-66
2021/10/06 19:17:58;;;;;;;;;;;;;;;12.06;76.66;99328.34;4959515;28;102973;-66
2021/10/06 19:20:26;;;;;;;;;;;;;;;12.20;76.75;99337.97;4965914;28;102709;-68
2021/10/06 19:22:54;;;;;;;;;;;;;;;12.16;76.12;99336.47;4971262;28;104158;-69